Time,TemperatureF,DewpointF,PressureIn,WindDirection,WindDirectionDegrees,WindSpeedMPH,WindSpeedGustMPH,Humidity,HourlyPrecipIn,Conditions,Clouds,dailyrainin,SoftwareType,DateUTC
2013-06-10 00:00:00,71.0,71.0,30.08,ENE,59,0.0,0.0,100,0.00,,,0.03,Wunderground v.1.15,2013-06-10 04:00:00,
2013-06-10 00:05:00,71.0,71.0,30.08,ENE,59,0.0,0.0,100,0.00,,,0.00,Wunderground v.1.15,2013-06-10 04:05:00,
2013-06-10 00:10:00,70.9,70.9,30.08,ENE,59,0.0,0.0,100,0.00,,,0.00,Wunderground v.1.15,2013-06-10 04:10:00,
2013-06-10 00:20:00,70.9,70.9,30.08,ENE,59,0.0,0.0,100,0.00,,,0.00,Wunderground v.1.15,2013-06-10 04:20:00,
2013-06-10 00:25:00,70.8,70.8,30.08,ENE,59,0.0,0.0,100,0.00,,,0.00,Wunderground v.1.15,2013-06-10 04:25:00,
2013-06-10 00:35:00,70.8,70.8,30.08,ENE,59,0.0,0.0,100,0.00,,,0.00,Wunderground v.1.15,2013-06-10 04:35:00,
2013-06-10 00:40:00,70.8,70.8,30.08,ENE,59,0.0,0.0,100,0.00,,,0.00,Wunderground v.1.15,2013-06-10 04:40:00,
2013-06-10 00:45:00,70.7,70.7,30.08,ENE,59,0.0,0.0,100,0.00,,,0.00,Wunderground v.1.15,2013-06-10 04:45:00,
2013-06-10 00:55:00,70.7,70.7,30.07,ENE,59,0.0,0.0,100,0.00,,,0.00,Wunderground v.1.15,2013-06-10 04:55:00,
2013-06-10 01:05:00,70.7,70.7,30.07,ENE,59,0.0,0.0,100,0.00,,,0.00,Wunderground v.1.15,2013-06-10 05:05:00,
2013-06-10 01:15:00,70.7,70.7,30.07,ENE,59,0.0,0.0,100,0.00,,,0.00,Wunderground v.1.15,2013-06-10 05:15:00,
2013-06-10 01:25:00,70.8,70.8,30.07,ENE,59,0.0,0.0,100,0.00,,,0.00,Wunderground v.1.15,2013-06-10 05:25:00,
2013-06-10 01:35:00,70.8,70.8,30.07,ENE,59,0.0,0.0,100,0.00,,,0.00,Wunderground v.1.15,2013-06-10 05:35:00,
2013-06-10 01:45:00,70.8,70.8,30.07,ENE,59,0.0,0.0,100,0.00,,,0.00,Wunderground v.1.15,2013-06-10 05:45:00,
2013-06-10 01:55:00,70.9,70.9,30.07,ENE,59,0.0,0.0,100,0.00,,,0.00,Wunderground v.1.15,2013-06-10 05:55:00,
2013-06-10 02:05:00,70.9,70.9,30.06,ENE,59,0.0,0.0,100,0.00,,,0.00,Wunderground v.1.15,2013-06-10 06:05:00,
2013-06-10 02:15:00,70.9,70.9,30.06,ENE,59,0.0,1.0,100,0.00,,,0.00,Wunderground v.1.15,2013-06-10 06:15:00,
2013-06-10 02:25:00,70.9,70.9,30.06,ENE,59,0.0,0.0,100,0.00,,,0.00,Wunderground v.1.15,2013-06-10 06:25:00,
2013-06-10 02:35:00,71.0,71.0,30.05,ENE,59,0.0,0.0,100,0.00,,,0.00,Wunderground v.1.15,2013-06-10 06:35:00,
2013-06-10 02:45:00,71.0,71.0,30.06,ENE,59,0.0,1.0,100,0.00,,,0.00,Wunderground v.1.15,2013-06-10 06:45:00,
2013-06-10 02:55:00,71.1,71.1,30.05,ENE,59,0.0,0.0,100,0.00,,,0.00,Wunderground v.1.15,2013-06-10 06:55:00,
2013-06-10 03:00:00,71.1,71.1,30.05,ENE,59,0.0,0.0,100,0.00,,,0.00,Wunderground v.1.15,2013-06-10 07:00:00,
2013-06-10 03:10:00,71.2,71.2,30.05,NNW,346,0.0,0.0,100,0.00,,,0.00,Wunderground v.1.15,2013-06-10 07:10:00,
2013-06-10 03:20:00,71.3,71.3,30.05,NNW,345,0.0,0.0,100,0.00,,,0.00,Wunderground v.1.15,2013-06-10 07:20:00,
2013-06-10 03:25:00,71.3,71.3,30.05,NNW,345,0.0,0.0,100,0.00,,,0.00,Wunderground v.1.15,2013-06-10 07:25:00,
2013-06-10 03:35:00,71.4,71.4,30.05,NNE,15,0.0,0.0,100,0.00,,,0.00,Wunderground v.1.15,2013-06-10 07:35:00,
2013-06-10 03:45:00,71.4,71.4,30.04,NNE,15,0.0,0.0,100,0.00,,,0.00,Wunderground v.1.15,2013-06-10 07:45:00,
2013-06-10 03:55:00,71.4,71.4,30.03,NNE,15,0.0,0.0,100,0.00,,,0.00,Wunderground v.1.15,2013-06-10 07:55:00,
2013-06-10 04:05:00,71.4,71.4,30.03,NNE,15,0.0,0.0,100,0.00,,,0.00,Wunderground v.1.15,2013-06-10 08:05:00,
2013-06-10 04:15:00,71.4,71.4,30.03,NNE,15,0.0,0.0,100,0.00,,,0.00,Wunderground v.1.15,2013-06-10 08:15:00,
2013-06-10 04:25:00,71.5,71.5,30.03,NNE,15,0.0,0.0,100,0.00,,,0.00,Wunderground v.1.15,2013-06-10 08:25:00,
2013-06-10 04:30:00,71.5,71.5,30.03,NNE,15,0.0,0.0,100,0.00,,,0.00,Wunderground v.1.15,2013-06-10 08:30:00,
2013-06-10 04:40:00,71.5,71.5,30.03,NNE,19,0.0,0.0,100,0.00,,,0.00,Wunderground v.1.15,2013-06-10 08:40:00,
2013-06-10 04:50:00,71.6,71.6,30.03,NNE,19,0.0,0.0,100,0.00,,,0.00,Wunderground v.1.15,2013-06-10 08:50:00,
2013-06-10 05:00:00,71.6,71.6,30.02,NNE,19,0.0,0.0,100,0.00,,,0.00,Wunderground v.1.15,2013-06-10 09:00:00,
2013-06-10 05:10:00,71.7,71.7,30.02,NNE,19,0.0,0.0,100,0.00,,,0.00,Wunderground v.1.15,2013-06-10 09:10:00,
2013-06-10 05:20:00,71.7,71.7,30.02,NNE,19,0.0,0.0,100,0.00,,,0.00,Wunderground v.1.15,2013-06-10 09:20:00,
2013-06-10 05:30:00,71.7,71.7,30.02,NNE,19,0.0,0.0,100,0.00,,,0.00,Wunderground v.1.15,2013-06-10 09:30:00,
2013-06-10 05:40:00,71.7,71.7,30.02,NNE,19,0.0,0.0,100,0.00,,,0.00,Wunderground v.1.15,2013-06-10 09:40:00,
2013-06-10 05:50:00,71.8,71.8,30.02,NNE,19,0.0,0.0,100,0.00,,,0.00,Wunderground v.1.15,2013-06-10 09:50:00,
2013-06-10 05:55:00,71.8,71.8,30.03,NNE,19,0.0,0.0,100,0.00,,,0.00,Wunderground v.1.15,2013-06-10 09:55:00,
2013-06-10 06:05:00,71.8,71.8,30.02,NNE,19,0.0,0.0,100,0.00,,,0.00,Wunderground v.1.15,2013-06-10 10:05:00,
2013-06-10 06:15:00,71.8,71.8,30.02,NNE,19,0.0,0.0,100,0.00,,,0.00,Wunderground v.1.15,2013-06-10 10:15:00,
2013-06-10 06:25:00,71.8,71.8,30.02,NNE,19,0.0,0.0,100,0.00,,,0.00,Wunderground v.1.15,2013-06-10 10:25:00,
2013-06-10 06:35:00,71.9,71.9,30.02,NNE,19,0.0,1.0,100,0.00,,,0.00,Wunderground v.1.15,2013-06-10 10:35:00,
2013-06-10 06:45:00,72.1,72.1,30.02,NNE,19,0.0,0.0,100,0.00,,,0.00,Wunderground v.1.15,2013-06-10 10:45:00,
2013-06-10 06:55:00,72.1,72.1,30.02,NNE,19,0.0,1.0,100,0.00,,,0.00,Wunderground v.1.15,2013-06-10 10:55:00,
2013-06-10 07:05:00,72.2,72.2,30.02,NNE,19,0.0,0.0,100,0.00,,,0.00,Wunderground v.1.15,2013-06-10 11:05:00,
2013-06-10 07:15:00,72.4,72.4,30.02,NNE,19,0.0,0.0,100,0.00,,,0.00,Wunderground v.1.15,2013-06-10 11:15:00,
2013-06-10 07:20:00,72.5,72.5,30.02,NNE,19,0.0,0.0,100,0.00,,,0.00,Wunderground v.1.15,2013-06-10 11:20:00,
2013-06-10 07:30:00,72.7,72.7,30.02,NNE,19,0.0,0.0,100,0.00,,,0.00,Wunderground v.1.15,2013-06-10 11:30:00,
2013-06-10 07:40:00,73.0,73.0,30.02,NNE,19,0.0,1.0,100,0.00,,,0.00,Wunderground v.1.15,2013-06-10 11:40:00,
2013-06-10 07:50:00,73.0,73.0,30.02,NNE,19,0.0,2.0,100,0.00,,,0.00,Wunderground v.1.15,2013-06-10 11:50:00,
2013-06-10 08:00:00,73.0,73.0,30.02,NNE,19,0.0,0.0,100,0.00,,,0.00,Wunderground v.1.15,2013-06-10 12:00:00,
2013-06-10 08:10:00,73.1,73.1,30.02,NNE,19,0.0,0.0,100,0.00,,,0.00,Wunderground v.1.15,2013-06-10 12:10:00,
2013-06-10 08:20:00,73.1,73.1,30.02,NNE,19,0.0,0.0,100,0.00,,,0.00,Wunderground v.1.15,2013-06-10 12:20:00,
2013-06-10 08:30:00,73.3,73.3,30.02,NNE,19,0.0,0.0,100,0.00,,,0.00,Wunderground v.1.15,2013-06-10 12:30:00,
2013-06-10 08:40:00,73.7,73.7,30.02,NNE,13,1.0,1.0,100,0.00,,,0.00,Wunderground v.1.15,2013-06-10 12:40:00,
2013-06-10 08:45:00,73.8,73.8,30.02,NE,46,1.0,1.0,100,0.00,,,0.00,Wunderground v.1.15,2013-06-10 12:45:00,
2013-06-10 08:55:00,74.2,74.2,30.02,NE,35,1.0,2.0,100,0.00,,,0.00,Wunderground v.1.15,2013-06-10 12:55:00,
2013-06-10 09:05:00,74.4,74.4,30.02,ENE,68,1.0,1.0,100,0.00,,,0.00,Wunderground v.1.15,2013-06-10 13:05:00,
2013-06-10 09:10:00,74.5,74.5,30.02,ENE,68,0.0,0.0,100,0.00,,,0.00,Wunderground v.1.15,2013-06-10 13:10:00,
2013-06-10 09:20:00,74.8,74.8,30.02,ENE,59,0.0,0.0,100,0.00,,,0.00,Wunderground v.1.15,2013-06-10 13:20:00,
2013-06-10 09:30:00,75.1,74.8,30.01,ENE,74,1.0,1.0,99,0.00,,,0.00,Wunderground v.1.15,2013-06-10 13:30:00,
2013-06-10 09:40:00,75.2,74.6,30.01,ENE,63,1.0,1.0,98,0.00,,,0.00,Wunderground v.1.15,2013-06-10 13:40:00,
2013-06-10 09:50:00,75.2,74.6,30.01,East,97,1.0,1.0,98,0.00,,,0.00,Wunderground v.1.15,2013-06-10 13:50:00,
2013-06-10 10:00:00,75.2,74.6,30.01,ENE,64,0.0,0.0,98,0.00,,,0.00,Wunderground v.1.15,2013-06-10 14:00:00,
2013-06-10 10:10:00,75.3,74.7,30.01,ENE,64,0.0,0.0,98,0.00,,,0.00,Wunderground v.1.15,2013-06-10 14:10:00,
2013-06-10 10:20:00,75.7,75.1,30.01,NE,54,0.0,0.0,98,0.00,,,0.00,Wunderground v.1.15,2013-06-10 14:20:00,
2013-06-10 10:30:00,75.8,74.6,30.01,ENE,74,1.0,2.0,96,0.00,,,0.00,Wunderground v.1.15,2013-06-10 14:30:00,
2013-06-10 10:40:00,76.0,74.5,30.00,East,86,1.0,1.0,95,0.00,,,0.00,Wunderground v.1.15,2013-06-10 14:40:00,
2013-06-10 10:45:00,76.1,74.6,30.00,ENE,75,1.0,1.0,95,0.00,,,0.00,Wunderground v.1.15,2013-06-10 14:45:00,
2013-06-10 10:55:00,76.6,74.7,30.00,NNE,30,1.0,2.0,94,0.00,,,0.00,Wunderground v.1.15,2013-06-10 14:55:00,
2013-06-10 11:05:00,77.6,75.1,30.00,ENE,57,1.0,2.0,92,0.00,,,0.00,Wunderground v.1.15,2013-06-10 15:05:00,
2013-06-10 11:15:00,78.2,74.7,30.00,NE,39,2.0,2.0,89,0.00,,,0.00,Wunderground v.1.15,2013-06-10 15:15:00,
2013-06-10 11:25:00,78.5,75.0,30.00,NNE,33,2.0,3.0,89,0.00,,,0.00,Wunderground v.1.15,2013-06-10 15:25:00,
2013-06-10 11:35:00,78.3,74.8,29.99,ENE,67,1.0,2.0,89,0.00,,,0.00,Wunderground v.1.15,2013-06-10 15:35:00,
2013-06-10 11:45:00,78.9,75.0,29.99,SE,139,1.0,1.0,88,0.00,,,0.00,Wunderground v.1.15,2013-06-10 15:45:00,
2013-06-10 11:55:00,78.6,75.1,29.99,East,80,1.0,2.0,89,0.00,,,0.00,Wunderground v.1.15,2013-06-10 15:55:00,
2013-06-10 12:05:00,77.0,73.2,30.00,North,5,1.0,4.0,88,0.25,,,0.02,Wunderground v.1.15,2013-06-10 16:05:00,
2013-06-10 12:15:00,72.8,70.7,30.00,NE,55,3.0,4.0,93,0.23,,,0.06,Wunderground v.1.15,2013-06-10 16:15:00,
2013-06-10 12:25:00,72.0,71.1,29.99,East,98,0.0,1.0,97,0.31,,,0.11,Wunderground v.1.15,2013-06-10 16:25:00,
2013-06-10 12:35:00,72.1,71.8,29.99,East,98,0.0,0.0,99,0.28,,,0.15,Wunderground v.1.15,2013-06-10 16:35:00,
2013-06-10 12:40:00,72.3,72.0,29.98,East,98,0.0,0.0,99,0.27,,,0.17,Wunderground v.1.15,2013-06-10 16:40:00,
2013-06-10 12:50:00,73.0,73.0,29.98,North,11,0.0,0.0,100,0.22,,,0.21,Wunderground v.1.15,2013-06-10 16:50:00,
2013-06-10 13:00:00,73.0,72.7,29.97,North,11,0.0,0.0,99,0.18,,,0.24,Wunderground v.1.15,2013-06-10 17:00:00,
2013-06-10 13:10:00,73.1,73.1,29.97,North,11,0.0,1.0,100,0.14,,,0.26,Wunderground v.1.15,2013-06-10 17:10:00,
2013-06-10 13:20:00,74.2,74.2,29.96,NE,34,0.0,0.0,100,0.07,,,0.27,Wunderground v.1.15,2013-06-10 17:20:00,
2013-06-10 13:30:00,74.8,74.8,29.96,NE,34,0.0,0.0,100,0.00,,,0.27,Wunderground v.1.15,2013-06-10 17:30:00,
2013-06-10 13:40:00,74.9,74.9,29.95,NE,34,0.0,1.0,100,0.00,,,0.27,Wunderground v.1.15,2013-06-10 17:40:00,
2013-06-10 13:45:00,74.8,74.8,29.95,NE,34,0.0,1.0,100,0.00,,,0.27,Wunderground v.1.15,2013-06-10 17:45:00,
2013-06-10 13:55:00,74.6,74.6,29.95,SE,124,0.0,1.0,100,0.00,,,0.28,Wunderground v.1.15,2013-06-10 17:55:00,
2013-06-10 14:05:00,74.4,74.4,29.94,SE,124,0.0,1.0,100,0.18,,,0.30,Wunderground v.1.15,2013-06-10 18:05:00,
2013-06-10 14:15:00,74.4,74.4,29.93,ESE,116,0.0,0.0,100,0.09,,,0.31,Wunderground v.1.15,2013-06-10 18:15:00,
2013-06-10 14:25:00,74.4,74.4,29.93,ESE,116,0.0,0.0,100,0.05,,,0.32,Wunderground v.1.15,2013-06-10 18:25:00,
2013-06-10 14:35:00,74.9,74.9,29.92,WNW,294,0.0,0.0,100,0.04,,,0.32,Wunderground v.1.15,2013-06-10 18:35:00,
2013-06-10 14:45:00,76.9,76.9,29.91,WNW,294,0.0,0.0,100,0.00,,,0.32,Wunderground v.1.15,2013-06-10 18:45:00,
2013-06-10 14:50:00,77.5,77.5,29.91,ENE,78,0.0,0.0,100,0.00,,,0.32,Wunderground v.1.15,2013-06-10 18:50:00,
2013-06-10 15:00:00,78.2,78.2,29.91,ENE,66,1.0,1.0,100,0.00,,,0.32,Wunderground v.1.15,2013-06-10 19:00:00,
2013-06-10 15:10:00,79.1,79.1,29.91,NNE,28,1.0,1.0,100,0.00,,,0.32,Wunderground v.1.15,2013-06-10 19:10:00,
2013-06-10 15:20:00,79.2,78.3,29.91,East,88,1.0,1.0,97,0.00,,,0.32,Wunderground v.1.15,2013-06-10 19:20:00,
2013-06-10 15:30:00,79.2,78.0,29.91,South,173,1.0,2.0,96,0.00,,,0.32,Wunderground v.1.15,2013-06-10 19:30:00,
2013-06-10 15:35:00,79.4,78.5,29.91,SSE,167,1.0,3.0,97,0.00,,,0.32,Wunderground v.1.15,2013-06-10 19:35:00,
2013-06-10 15:40:00,79.2,77.6,29.90,East,88,1.0,2.0,95,0.00,,,0.32,Wunderground v.1.15,2013-06-10 19:40:00,
2013-06-10 15:50:00,78.9,77.0,29.89,ESE,109,1.0,2.0,94,0.00,,,0.32,Wunderground v.1.15,2013-06-10 19:50:00,
2013-06-10 16:00:00,78.6,77.0,29.88,NE,44,2.0,2.0,95,0.00,,,0.32,Wunderground v.1.15,2013-06-10 20:00:00,
2013-06-10 16:10:00,79.2,77.6,29.88,East,94,1.0,1.0,95,0.00,,,0.32,Wunderground v.1.15,2013-06-10 20:10:00,
2013-06-10 16:20:00,79.5,76.6,29.88,East,87,2.0,2.0,91,0.00,,,0.32,Wunderground v.1.15,2013-06-10 20:20:00,
2013-06-10 16:30:00,79.6,76.7,29.87,ESE,109,2.0,2.0,91,0.00,,,0.32,Wunderground v.1.15,2013-06-10 20:30:00,
2013-06-10 16:40:00,79.6,76.7,29.87,ENE,69,1.0,1.0,91,0.00,,,0.32,Wunderground v.1.15,2013-06-10 20:40:00,
2013-06-10 16:50:00,79.5,76.6,29.87,East,82,1.0,2.0,91,0.00,,,0.32,Wunderground v.1.15,2013-06-10 20:50:00,
2013-06-10 17:00:00,78.9,76.4,29.87,ESE,120,1.0,1.0,92,0.00,,,0.32,Wunderground v.1.15,2013-06-10 21:00:00,
2013-06-10 17:10:00,78.5,76.0,29.87,SSW,201,1.0,1.0,92,0.00,,,0.32,Wunderground v.1.15,2013-06-10 21:10:00,
2013-06-10 17:20:00,78.2,76.6,29.87,SSW,201,0.0,0.0,95,0.00,,,0.32,Wunderground v.1.15,2013-06-10 21:20:00,
2013-06-10 17:30:00,77.7,76.5,29.88,SSW,201,0.0,0.0,96,0.00,,,0.33,Wunderground v.1.15,2013-06-10 21:30:00,
2013-06-10 17:35:00,77.2,75.7,29.88,ESE,115,0.0,0.0,95,0.00,,,0.33,Wunderground v.1.15,2013-06-10 21:35:00,
2013-06-10 17:45:00,76.5,75.6,29.88,ESE,115,0.0,1.0,97,0.11,,,0.35,Wunderground v.1.15,2013-06-10 21:45:00,
2013-06-10 17:55:00,76.0,75.4,29.88,ENE,66,1.0,2.0,98,0.13,,,0.37,Wunderground v.1.15,2013-06-10 21:55:00,
2013-06-10 18:00:00,75.9,75.3,29.87,ESE,106,1.0,1.0,98,0.09,,,0.38,Wunderground v.1.15,2013-06-10 22:00:00,
2013-06-10 18:10:00,75.8,75.5,29.88,ESE,106,0.0,0.0,99,0.10,,,0.39,Wunderground v.1.15,2013-06-10 22:10:00,
2013-06-10 18:20:00,75.6,75.3,29.88,East,84,0.0,1.0,99,0.10,,,0.41,Wunderground v.1.15,2013-06-10 22:20:00,
2013-06-10 18:30:00,75.4,75.1,29.88,East,80,0.0,1.0,99,0.08,,,0.42,Wunderground v.1.15,2013-06-10 22:30:00,
2013-06-10 18:40:00,75.3,75.0,29.87,NNW,327,1.0,3.0,99,0.04,,,0.42,Wunderground v.1.15,2013-06-10 22:40:00,
2013-06-10 18:45:00,74.8,74.2,29.88,ENE,57,1.0,3.0,98,0.00,,,0.42,Wunderground v.1.15,2013-06-10 22:45:00,
2013-06-10 18:55:00,74.5,74.2,29.88,ENE,57,1.0,1.0,99,0.00,,,0.43,Wunderground v.1.15,2013-06-10 22:55:00,
2013-06-10 19:05:00,74.0,73.7,29.88,NE,44,1.0,1.0,99,0.00,,,0.43,Wunderground v.1.15,2013-06-10 23:05:00,
2013-06-10 19:45:00,73.1,73.1,29.89,NE,48,1.0,1.0,100,0.00,,,0.43,Wunderground v.1.15,2013-06-10 23:45:00,
2013-06-10 19:55:00,73.0,73.0,29.89,NE,48,1.0,1.0,100,0.00,,,0.43,Wunderground v.1.15,2013-06-10 23:55:00,
2013-06-10 20:05:00,72.8,72.8,29.88,NNW,327,1.0,1.0,100,0.00,,,0.43,Wunderground v.1.15,2013-06-11 00:05:00,
2013-06-10 20:15:00,72.8,72.8,29.88,NNW,333,1.0,1.0,100,0.00,,,0.43,Wunderground v.1.15,2013-06-11 00:15:00,
2013-06-10 20:20:00,72.7,72.7,29.88,NNW,333,0.0,1.0,100,0.00,,,0.43,Wunderground v.1.15,2013-06-11 00:20:00,
2013-06-10 20:30:00,72.6,72.6,29.88,NNE,22,0.0,1.0,100,0.00,,,0.43,Wunderground v.1.15,2013-06-11 00:30:00,
2013-06-10 20:40:00,72.4,72.4,29.88,ENE,61,1.0,1.0,100,0.00,,,0.43,Wunderground v.1.15,2013-06-11 00:40:00,
2013-06-10 20:45:00,72.3,72.3,29.88,ENE,74,1.0,1.0,100,0.00,,,0.43,Wunderground v.1.15,2013-06-11 00:45:00,
2013-06-10 20:55:00,72.1,72.1,29.88,ENE,78,1.0,1.0,100,0.00,,,0.43,Wunderground v.1.15,2013-06-11 00:55:00,
2013-06-10 21:05:00,72.0,72.0,29.88,ENE,78,0.0,0.0,100,0.00,,,0.43,Wunderground v.1.15,2013-06-11 01:05:00,
2013-06-10 21:15:00,71.9,71.9,29.88,ENE,78,0.0,1.0,100,0.00,,,0.43,Wunderground v.1.15,2013-06-11 01:15:00,
2013-06-10 21:25:00,71.7,71.7,29.88,NNE,26,1.0,1.0,100,0.00,,,0.43,Wunderground v.1.15,2013-06-11 01:25:00,
2013-06-10 21:30:00,71.7,71.7,29.88,NNE,26,1.0,1.0,100,0.00,,,0.43,Wunderground v.1.15,2013-06-11 01:30:00,
2013-06-10 21:40:00,71.6,71.6,29.88,NNE,26,0.0,2.0,100,0.00,,,0.43,Wunderground v.1.15,2013-06-11 01:40:00,
2013-06-10 21:50:00,71.6,71.6,29.89,ENE,61,1.0,1.0,100,0.00,,,0.43,Wunderground v.1.15,2013-06-11 01:50:00,
2013-06-10 22:00:00,71.6,71.6,29.89,ENE,65,1.0,1.0,100,0.00,,,0.43,Wunderground v.1.15,2013-06-11 02:00:00,
2013-06-10 22:10:00,71.6,71.6,29.90,ESE,116,0.0,0.0,100,0.00,,,0.43,Wunderground v.1.15,2013-06-11 02:10:00,
2013-06-10 22:15:00,71.6,71.6,29.90,SE,139,0.0,0.0,100,0.00,,,0.43,Wunderground v.1.15,2013-06-11 02:15:00,
2013-06-10 22:25:00,71.5,71.5,29.91,SE,139,0.0,0.0,100,0.00,,,0.43,Wunderground v.1.15,2013-06-11 02:25:00,
2013-06-10 22:35:00,71.5,71.5,29.92,East,100,1.0,1.0,100,0.00,,,0.43,Wunderground v.1.15,2013-06-11 02:35:00,
2013-06-10 22:40:00,71.5,71.5,29.92,East,98,1.0,1.0,100,0.00,,,0.43,Wunderground v.1.15,2013-06-11 02:40:00,
2013-06-10 22:50:00,71.5,71.5,29.92,East,98,0.0,0.0,100,0.00,,,0.43,Wunderground v.1.15,2013-06-11 02:50:00,
2013-06-10 23:00:00,71.5,71.5,29.93,ESE,107,1.0,1.0,100,0.00,,,0.43,Wunderground v.1.15,2013-06-11 03:00:00,
2013-06-10 23:10:00,71.6,71.6,29.93,ESE,123,1.0,1.0,100,0.00,,,0.43,Wunderground v.1.15,2013-06-11 03:10:00,
2013-06-10 23:20:00,71.6,71.6,29.93,ENE,63,0.0,2.0,100,0.00,,,0.43,Wunderground v.1.15,2013-06-11 03:20:00,
2013-06-10 23:25:00,71.5,71.5,29.92,ENE,63,0.0,2.0,100,0.00,,,0.43,Wunderground v.1.15,2013-06-11 03:25:00,
2013-06-10 23:35:00,71.5,71.5,29.93,SE,130,0.0,0.0,100,0.00,,,0.43,Wunderground v.1.15,2013-06-11 03:35:00,
2013-06-10 23:45:00,71.5,71.5,29.91,ENE,71,0.0,2.0,100,0.00,,,0.43,Wunderground v.1.15,2013-06-11 03:45:00,
2013-06-10 23:55:00,71.3,71.3,29.92,ENE,71,0.0,0.0,100,0.00,,,0.43,Wunderground v.1.15,2013-06-11 03:55:00,